createdAt,value
2022-10-11T00:00:09.656Z,15.00
2022-10-11T00:05:33.382Z,11.50
2022-10-11T00:10:36.601Z,12.20
2022-10-11T00:15:41.621Z,13.97
2022-10-11T00:20:44.881Z,14.23
2022-10-11T00:26:01.130Z,14.03
2022-10-11T00:31:11.810Z,15.97
2022-10-11T00:36:17.478Z,20.13
2022-10-11T00:41:20.854Z,16.43
2022-10-11T00:46:30.327Z,19.93
2022-10-11T00:51:48.400Z,15.10
2022-10-11T00:56:56.849Z,13.23
2022-10-11T01:02:00.121Z,16.90
2022-10-11T01:07:03.821Z,19.23
2022-10-11T01:12:24.053Z,14.37
2022-10-11T01:17:44.540Z,17.17
2022-10-11T01:22:56.945Z,16.30
2022-10-11T01:28:28.174Z,17.20
2022-10-11T01:33:41.210Z,12.13
2022-10-11T01:39:07.530Z,17.03
2022-10-11T01:44:13.217Z,16.50
2022-10-11T01:49:16.649Z,17.30
2022-10-11T01:55:04.358Z,15.67
2022-10-11T02:00:15.739Z,20.07
2022-10-11T02:05:43.662Z,19.00
2022-10-11T02:11:02.919Z,26.63
2022-10-11T02:16:13.242Z,22.57
2022-10-11T02:21:21.077Z,24.17
2022-10-11T02:26:28.261Z,23.87
2022-10-11T02:31:34.112Z,25.67
2022-10-11T02:37:02.667Z,23.30
2022-10-11T02:42:10.287Z,27.60
2022-10-11T02:47:14.850Z,24.37
2022-10-11T02:52:18.221Z,27.33
2022-10-11T02:57:21.478Z,28.47
2022-10-11T03:02:24.790Z,26.50
2022-10-11T03:07:28.006Z,28.20
2022-10-11T03:12:31.120Z,29.53
2022-10-11T03:17:36.962Z,27.63
2022-10-11T03:22:41.402Z,23.03
2022-10-11T03:27:44.799Z,26.23
2022-10-11T03:32:48.050Z,28.27
2022-10-11T03:37:52.062Z,21.20
2022-10-11T03:42:57.035Z,21.67
2022-10-11T03:48:00.251Z,23.20
2022-10-11T03:53:03.839Z,17.73
2022-10-11T03:58:07.101Z,18.63
2022-10-11T04:03:10.261Z,19.07
2022-10-11T04:08:13.563Z,18.17
2022-10-11T04:13:17.294Z,18.67
2022-10-11T04:18:20.514Z,19.33
2022-10-11T04:23:23.731Z,18.83
2022-10-11T04:28:27.001Z,21.10
2022-10-11T04:33:30.821Z,22.50
2022-10-11T04:38:34.079Z,28.67
2022-10-11T04:43:37.911Z,35.97
2022-10-11T04:48:41.414Z,26.50
2022-10-11T04:53:45.033Z,28.43
2022-10-11T04:58:54.713Z,26.93
2022-10-11T05:03:57.974Z,29.43
2022-10-11T05:09:01.079Z,24.57
2022-10-11T05:14:04.114Z,25.17
2022-10-11T05:19:07.364Z,27.33
2022-10-11T05:24:11.024Z,22.60
2022-10-11T05:29:14.657Z,24.60
2022-10-11T05:34:18.314Z,25.73
2022-10-11T05:39:21.365Z,24.67
2022-10-11T05:44:24.736Z,17.57
2022-10-11T05:49:27.797Z,17.73
2022-10-11T05:54:31.630Z,15.00
2022-10-11T05:59:36.164Z,23.53
2022-10-11T06:04:39.974Z,17.37
2022-10-11T06:09:43.574Z,25.13
2022-10-11T06:14:46.851Z,26.67
2022-10-11T06:19:50.773Z,19.53
2022-10-11T06:24:54.172Z,18.97
2022-10-11T06:29:57.485Z,14.47
2022-10-11T06:35:00.859Z,14.17
2022-10-11T06:40:04.950Z,16.87
2022-10-11T06:45:08.707Z,15.03
2022-10-11T06:50:12.134Z,16.43
2022-10-11T06:55:15.846Z,8.10
2022-10-11T07:00:19.444Z,8.63
2022-10-11T07:05:22.735Z,8.33
2022-10-11T07:10:25.860Z,8.93
2022-10-11T07:15:29.294Z,10.60
2022-10-11T07:20:33.634Z,6.47
2022-10-11T07:25:37.251Z,8.70
2022-10-11T07:30:42.134Z,6.73
2022-10-11T07:35:48.430Z,11.73
2022-10-11T07:40:52.450Z,6.40
2022-10-11T07:45:56.176Z,7.10
2022-10-11T07:51:08.136Z,9.80
2022-10-11T07:56:14.083Z,5.50
2022-10-11T08:01:17.915Z,13.20
2022-10-11T08:06:30.093Z,9.90
2022-10-11T08:11:36.644Z,10.83
2022-10-11T08:16:40.331Z,9.37
2022-10-11T08:21:43.601Z,5.57
2022-10-11T08:26:50.625Z,5.87
2022-10-11T08:31:57.644Z,10.27
2022-10-11T08:37:02.399Z,9.63
2022-10-11T08:42:07.154Z,7.67
2022-10-11T08:47:20.504Z,13.53
2022-10-11T08:52:27.665Z,9.03
2022-10-11T08:57:34.935Z,14.17
2022-10-11T09:03:08.980Z,9.50
2022-10-11T09:08:31.242Z,8.67
2022-10-11T09:13:59.808Z,7.17
2022-10-11T09:19:17.677Z,10.23
2022-10-11T09:24:47.803Z,7.70
2022-10-11T09:30:15.313Z,5.93
2022-10-11T09:35:22.188Z,9.17
2022-10-11T09:40:48.665Z,8.50
2022-10-11T09:45:52.389Z,7.80
2022-10-11T09:51:17.902Z,11.63
2022-10-11T09:56:22.010Z,7.03
2022-10-11T10:01:27.049Z,7.37
2022-10-11T10:06:30.284Z,8.40
2022-10-11T10:11:38.336Z,8.03
2022-10-11T10:16:41.824Z,6.03
2022-10-11T10:21:51.203Z,6.63
2022-10-11T10:27:24.113Z,3.97
2022-10-11T10:32:35.049Z,10.27
2022-10-11T10:37:57.799Z,7.53
2022-10-11T10:43:01.137Z,7.50
2022-10-11T10:48:19.064Z,8.07
2022-10-11T10:53:41.518Z,6.70
2022-10-11T10:58:59.934Z,8.37
2022-10-11T11:04:32.625Z,9.90
2022-10-11T11:10:04.205Z,5.77
2022-10-11T11:15:32.041Z,5.13
2022-10-11T11:21:02.885Z,5.13
2022-10-11T11:26:16.466Z,7.43
2022-10-11T11:31:25.661Z,8.40
2022-10-11T11:36:46.650Z,9.60
2022-10-11T11:42:02.009Z,8.00
2022-10-11T11:47:32.158Z,4.20
2022-10-11T11:52:46.135Z,7.47
2022-10-11T11:58:26.964Z,6.23
2022-10-11T12:03:43.825Z,8.03
2022-10-11T12:08:50.548Z,9.27
2022-10-11T12:13:55.591Z,3.43
2022-10-11T12:19:02.561Z,5.40
2022-10-11T12:24:24.670Z,7.30
2022-10-11T12:29:46.944Z,6.13
2022-10-11T12:35:32.918Z,5.43
2022-10-11T12:40:42.689Z,5.80
2022-10-11T12:45:49.513Z,5.87
2022-10-11T12:51:26.333Z,5.63
2022-10-11T12:57:01.839Z,5.67
2022-10-11T13:02:22.154Z,6.63
2022-10-11T13:07:25.475Z,6.73
2022-10-11T13:12:37.114Z,3.60
2022-10-11T13:17:41.155Z,4.83
2022-10-11T13:22:48.047Z,7.20
2022-10-11T13:27:53.607Z,8.83
2022-10-11T13:32:57.765Z,7.73
2022-10-11T13:38:02.133Z,5.23
2022-10-11T13:43:06.464Z,4.30
2022-10-11T13:48:16.438Z,5.77
2022-10-11T13:53:20.004Z,7.07
2022-10-11T13:58:39.224Z,4.00
2022-10-11T14:03:49.879Z,6.43
2022-10-11T14:08:56.437Z,4.83
2022-10-11T14:14:00.343Z,4.73
2022-10-11T14:19:10.664Z,5.17
2022-10-11T14:24:15.174Z,3.57
2022-10-11T14:29:31.200Z,4.83
2022-10-11T14:34:36.084Z,4.83
2022-10-11T14:39:39.506Z,3.67
2022-10-11T14:44:42.804Z,6.43
2022-10-11T14:49:45.989Z,4.53
2022-10-11T14:54:49.214Z,4.07
2022-10-11T14:59:52.664Z,7.03
2022-10-11T15:04:55.858Z,8.63
2022-10-11T15:09:59.098Z,7.57
2022-10-11T15:15:02.043Z,5.57
2022-10-11T15:20:07.892Z,5.13
2022-10-11T15:25:11.530Z,3.97
2022-10-11T15:30:41.149Z,7.07
2022-10-11T15:35:45.124Z,7.13
2022-10-11T15:40:49.303Z,6.27
2022-10-11T15:45:52.771Z,7.03
2022-10-11T15:50:56.335Z,7.50
2022-10-11T15:56:03.860Z,9.13
2022-10-11T16:01:12.467Z,23.00
2022-10-11T16:06:16.747Z,16.77
2022-10-11T16:11:20.628Z,14.90
2022-10-11T16:16:24.762Z,10.00
2022-10-11T16:21:28.264Z,9.67
2022-10-11T16:26:32.261Z,12.13
2022-10-11T16:31:35.932Z,10.47
2022-10-11T16:36:43.094Z,8.73
2022-10-11T16:41:47.493Z,6.20
2022-10-11T16:46:51.091Z,7.80
2022-10-11T16:51:57.239Z,8.23
2022-10-11T16:57:00.906Z,9.83
2022-10-11T17:02:05.964Z,12.73
2022-10-11T17:07:12.754Z,10.43
2022-10-11T17:12:19.624Z,13.77
2022-10-11T17:17:23.380Z,10.17
2022-10-11T17:22:27.214Z,11.50
2022-10-11T17:27:33.504Z,9.47
2022-10-11T17:32:36.725Z,19.17
2022-10-11T17:37:41.064Z,15.97
2022-10-11T17:42:46.457Z,10.87
2022-10-11T17:47:51.362Z,10.97
2022-10-11T17:52:56.505Z,22.97
2022-10-11T17:58:01.605Z,22.17
2022-10-11T18:03:05.574Z,21.17
2022-10-11T18:08:10.315Z,19.70
2022-10-11T18:13:15.419Z,12.03
2022-10-11T18:18:23.054Z,15.27
2022-10-11T18:23:26.325Z,14.50
2022-10-11T18:28:31.325Z,20.43
2022-10-11T18:33:37.923Z,20.90
2022-10-11T18:38:47.448Z,25.17
2022-10-11T18:43:54.581Z,19.20
2022-10-11T18:49:00.269Z,28.03
2022-10-11T18:54:06.232Z,24.33
2022-10-11T18:59:11.174Z,24.17
2022-10-11T19:04:17.227Z,24.53
2022-10-11T19:09:26.614Z,29.63
2022-10-11T19:14:31.293Z,28.37
2022-10-11T19:19:35.960Z,25.40
2022-10-11T19:24:40.409Z,22.73
2022-10-11T19:29:44.303Z,24.73
2022-10-11T19:34:48.574Z,23.80
2022-10-11T19:39:54.425Z,17.83
2022-10-11T19:44:57.948Z,20.53
2022-10-11T19:50:02.984Z,17.53
2022-10-11T19:55:07.713Z,17.20
2022-10-11T20:00:11.982Z,14.50
2022-10-11T20:05:16.623Z,18.60
2022-10-11T20:10:29.364Z,23.63
2022-10-11T20:15:38.562Z,28.40
2022-10-11T20:21:02.628Z,27.50
2022-10-11T20:26:32.774Z,37.27
2022-10-11T20:31:42.520Z,35.20
2022-10-11T20:36:49.123Z,38.27
2022-10-11T20:41:56.894Z,33.17
2022-10-11T20:47:04.078Z,34.50
2022-10-11T20:52:07.854Z,31.17
2022-10-11T20:57:11.044Z,26.57
2022-10-11T21:02:18.822Z,25.60
2022-10-11T21:07:23.383Z,22.13
2022-10-11T21:12:26.639Z,32.23
2022-10-11T21:17:29.933Z,32.90
2022-10-11T21:22:34.522Z,23.57
2022-10-11T21:27:38.893Z,26.47
2022-10-11T21:32:42.472Z,37.30
2022-10-11T21:37:46.074Z,64.83
2022-10-11T21:42:49.463Z,64.30
2022-10-11T21:47:52.753Z,62.73
2022-10-11T21:52:56.182Z,55.07
2022-10-11T21:57:59.534Z,70.37
2022-10-11T22:09:37.728Z,56.63
2022-10-11T22:14:40.951Z,63.77
2022-10-11T22:19:44.339Z,66.63
2022-10-11T22:24:47.636Z,66.17
2022-10-11T22:29:50.830Z,88.70
2022-10-11T22:34:54.151Z,89.37
2022-10-11T22:39:57.447Z,82.30
2022-10-11T22:45:00.697Z,75.83
2022-10-11T22:50:04.717Z,75.97
2022-10-11T22:55:08.469Z,70.10
2022-10-11T23:00:12.111Z,56.80
2022-10-11T23:05:15.420Z,62.60
2022-10-11T23:10:42.555Z,57.20
2022-10-11T23:15:45.750Z,49.50
2022-10-11T23:20:49.102Z,48.33
2022-10-11T23:26:01.678Z,53.87
2022-10-11T23:31:11.207Z,48.87
2022-10-11T23:36:20.540Z,57.70
2022-10-11T23:41:26.365Z,57.20
2022-10-11T23:46:29.827Z,59.47
2022-10-11T23:52:13.744Z,55.37
2022-10-11T23:57:16.974Z,53.40
